Time,TemperatureF,DewpointF,PressureIn,WindDirection,WindDirectionDegrees,WindSpeedMPH,WindSpeedGustMPH,Humidity,HourlyPrecipIn,Conditions,Clouds,dailyrainin,SoftwareType,DateUTC
2013-03-30 00:03:00,54.1,48.4,30.29,ENE,75,0.0,0.0,81,0.00,,,0.00,Wunderground v.1.15,2013-03-30 04:03:00,
2013-03-30 00:13:00,53.7,48.0,30.29,ENE,75,0.0,0.0,81,0.00,,,0.00,Wunderground v.1.15,2013-03-30 04:13:00,
2013-03-30 00:18:00,53.4,48.0,30.29,ENE,75,0.0,0.0,82,0.00,,,0.00,Wunderground v.1.15,2013-03-30 04:18:00,
2013-03-30 00:23:00,53.2,47.8,30.29,ENE,75,0.0,0.0,82,0.00,,,0.00,Wunderground v.1.15,2013-03-30 04:23:00,
2013-03-30 00:28:00,52.9,47.9,30.29,ENE,75,0.0,0.0,83,0.00,,,0.00,Wunderground v.1.15,2013-03-30 04:28:00,
2013-03-30 00:33:00,52.6,47.6,30.28,ENE,75,0.0,0.0,83,0.00,,,0.00,Wunderground v.1.15,2013-03-30 04:33:00,
2013-03-30 00:38:00,52.5,47.8,30.28,ENE,75,0.0,0.0,84,0.00,,,0.00,Wunderground v.1.15,2013-03-30 04:38:00,
2013-03-30 00:43:00,52.4,47.7,30.28,ENE,75,0.0,0.0,84,0.00,,,0.00,Wunderground v.1.15,2013-03-30 04:43:00,
2013-03-30 00:48:00,52.2,47.8,30.28,ENE,75,0.0,0.0,85,0.00,,,0.00,Wunderground v.1.15,2013-03-30 04:48:00,
2013-03-30 00:53:00,51.9,47.5,30.28,ENE,75,0.0,0.0,85,0.00,,,0.00,Wunderground v.1.15,2013-03-30 04:53:00,
2013-03-30 00:58:00,51.9,47.8,30.27,ENE,75,0.0,0.0,86,0.00,,,0.00,Wunderground v.1.15,2013-03-30 04:58:00,
2013-03-30 01:03:00,51.7,47.6,30.27,ENE,76,0.0,1.0,86,0.00,,,0.00,Wunderground v.1.15,2013-03-30 05:03:00,
2013-03-30 01:08:00,51.5,47.5,30.27,ENE,76,0.0,0.0,86,0.00,,,0.00,Wunderground v.1.15,2013-03-30 05:08:00,
2013-03-30 01:13:00,51.2,47.5,30.27,ENE,76,0.0,0.0,87,0.00,,,0.00,Wunderground v.1.15,2013-03-30 05:13:00,
2013-03-30 01:18:00,51.1,47.4,30.27,ENE,77,0.0,0.0,87,0.00,,,0.00,Wunderground v.1.15,2013-03-30 05:18:00,
2013-03-30 01:23:00,50.8,47.1,30.27,ENE,77,0.0,0.0,87,0.00,,,0.00,Wunderground v.1.15,2013-03-30 05:23:00,
2013-03-30 01:28:00,50.6,47.2,30.27,ENE,77,0.0,0.0,88,0.00,,,0.00,Wunderground v.1.15,2013-03-30 05:28:00,
2013-03-30 01:33:00,50.5,47.1,30.27,ENE,76,0.0,0.0,88,0.00,,,0.00,Wunderground v.1.15,2013-03-30 05:33:00,
2013-03-30 01:38:00,50.4,47.3,30.27,ENE,77,0.0,0.0,89,0.00,,,0.00,Wunderground v.1.15,2013-03-30 05:38:00,
2013-03-30 01:43:00,50.3,47.2,30.27,ENE,77,0.0,0.0,89,0.00,,,0.00,Wunderground v.1.15,2013-03-30 05:43:00,
2013-03-30 01:48:00,50.1,47.0,30.27,ENE,77,0.0,0.0,89,0.00,,,0.00,Wunderground v.1.15,2013-03-30 05:48:00,
2013-03-30 01:53:00,50.2,47.4,30.27,East,81,0.0,0.0,90,0.00,,,0.00,Wunderground v.1.15,2013-03-30 05:53:00,
2013-03-30 01:58:00,50.2,47.4,30.27,East,81,0.0,0.0,90,0.00,,,0.00,Wunderground v.1.15,2013-03-30 05:58:00,
2013-03-30 02:03:00,50.2,47.4,30.27,East,81,0.0,0.0,90,0.00,,,0.00,Wunderground v.1.15,2013-03-30 06:03:00,
2013-03-30 02:08:00,50.0,47.2,30.27,East,81,0.0,0.0,90,0.00,,,0.00,Wunderground v.1.15,2013-03-30 06:08:00,
2013-03-30 02:13:00,49.9,47.1,30.27,East,81,0.0,0.0,90,0.00,,,0.00,Wunderground v.1.15,2013-03-30 06:13:00,
2013-03-30 02:18:00,49.9,47.1,30.27,East,81,0.0,0.0,90,0.00,,,0.00,Wunderground v.1.15,2013-03-30 06:18:00,
2013-03-30 02:28:00,49.7,46.9,30.27,East,81,0.0,0.0,90,0.00,,,0.00,Wunderground v.1.15,2013-03-30 06:28:00,
2013-03-30 02:33:00,49.6,47.1,30.27,East,81,0.0,0.0,91,0.00,,,0.00,Wunderground v.1.15,2013-03-30 06:33:00,
2013-03-30 02:38:00,49.5,47.0,30.27,East,81,0.0,0.0,91,0.00,,,0.00,Wunderground v.1.15,2013-03-30 06:38:00,
2013-03-30 02:43:00,49.3,46.5,30.26,East,81,0.0,0.0,90,0.00,,,0.00,Wunderground v.1.15,2013-03-30 06:43:00,
2013-03-30 02:48:00,49.1,46.6,30.26,East,81,0.0,0.0,91,0.00,,,0.00,Wunderground v.1.15,2013-03-30 06:48:00,
2013-03-30 02:53:00,49.0,46.5,30.26,East,81,0.0,0.0,91,0.00,,,0.00,Wunderground v.1.15,2013-03-30 06:53:00,
2013-03-30 03:03:00,48.8,46.6,30.26,East,81,0.0,0.0,92,0.00,,,0.00,Wunderground v.1.15,2013-03-30 07:03:00,
2013-03-30 03:08:00,48.8,46.6,30.26,East,81,0.0,0.0,92,0.00,,,0.00,Wunderground v.1.15,2013-03-30 07:08:00,
2013-03-30 03:13:00,48.8,46.6,30.26,East,81,0.0,0.0,92,0.00,,,0.00,Wunderground v.1.15,2013-03-30 07:13:00,
2013-03-30 03:18:00,48.8,46.6,30.25,East,81,0.0,0.0,92,0.00,,,0.00,Wunderground v.1.15,2013-03-30 07:18:00,
2013-03-30 03:23:00,48.9,46.4,30.25,East,81,0.0,0.0,91,0.00,,,0.00,Wunderground v.1.15,2013-03-30 07:23:00,
2013-03-30 03:28:00,49.0,46.2,30.25,East,81,0.0,0.0,90,0.00,,,0.00,Wunderground v.1.15,2013-03-30 07:28:00,
2013-03-30 03:33:00,49.2,46.4,30.25,East,81,0.0,0.0,90,0.00,,,0.00,Wunderground v.1.15,2013-03-30 07:33:00,
2013-03-30 03:38:00,49.2,46.1,30.25,East,81,0.0,0.0,89,0.00,,,0.00,Wunderground v.1.15,2013-03-30 07:38:00,
2013-03-30 03:43:00,49.2,46.1,30.25,East,81,0.0,0.0,89,0.00,,,0.00,Wunderground v.1.15,2013-03-30 07:43:00,
2013-03-30 03:48:00,49.2,45.8,30.25,East,81,0.0,0.0,88,0.00,,,0.00,Wunderground v.1.15,2013-03-30 07:48:00,
2013-03-30 03:53:00,49.2,45.8,30.25,East,81,0.0,0.0,88,0.00,,,0.00,Wunderground v.1.15,2013-03-30 07:53:00,
2013-03-30 03:58:00,49.1,45.4,30.25,East,81,0.0,0.0,87,0.00,,,0.00,Wunderground v.1.15,2013-03-30 07:58:00,
2013-03-30 04:03:00,48.9,45.2,30.25,East,81,0.0,0.0,87,0.00,,,0.00,Wunderground v.1.15,2013-03-30 08:03:00,
2013-03-30 04:13:00,48.7,45.3,30.25,East,81,0.0,0.0,88,0.00,,,0.00,Wunderground v.1.15,2013-03-30 08:13:00,
2013-03-30 04:18:00,48.5,45.1,30.25,East,81,0.0,0.0,88,0.00,,,0.00,Wunderground v.1.15,2013-03-30 08:18:00,
2013-03-30 04:23:00,48.3,44.9,30.25,East,81,0.0,0.0,88,0.00,,,0.00,Wunderground v.1.15,2013-03-30 08:23:00,
2013-03-30 04:28:00,48.1,44.7,30.25,East,81,0.0,0.0,88,0.00,,,0.00,Wunderground v.1.15,2013-03-30 08:28:00,
2013-03-30 04:33:00,48.0,44.9,30.25,East,81,0.0,0.0,89,0.00,,,0.00,Wunderground v.1.15,2013-03-30 08:33:00,
2013-03-30 04:38:00,47.8,44.7,30.25,East,81,0.0,0.0,89,0.00,,,0.00,Wunderground v.1.15,2013-03-30 08:38:00,
2013-03-30 04:48:00,47.2,44.1,30.25,East,81,0.0,0.0,89,0.00,,,0.00,Wunderground v.1.15,2013-03-30 08:48:00,
2013-03-30 04:53:00,47.1,44.3,30.25,East,80,0.0,0.0,90,0.00,,,0.00,Wunderground v.1.15,2013-03-30 08:53:00,
2013-03-30 04:58:00,47.0,44.2,30.25,East,81,0.0,0.0,90,0.00,,,0.00,Wunderground v.1.15,2013-03-30 08:58:00,
2013-03-30 05:03:00,46.8,44.0,30.25,East,81,0.0,0.0,90,0.00,,,0.00,Wunderground v.1.15,2013-03-30 09:03:00,
2013-03-30 05:08:00,46.6,43.8,30.25,East,81,0.0,0.0,90,0.00,,,0.00,Wunderground v.1.15,2013-03-30 09:08:00,
2013-03-30 05:13:00,46.3,43.5,30.25,East,80,0.0,0.0,90,0.00,,,0.00,Wunderground v.1.15,2013-03-30 09:13:00,
2013-03-30 05:18:00,46.2,43.4,30.25,East,81,0.0,0.0,90,0.00,,,0.00,Wunderground v.1.15,2013-03-30 09:18:00,
2013-03-30 05:23:00,45.9,43.1,30.24,East,81,0.0,0.0,90,0.00,,,0.00,Wunderground v.1.15,2013-03-30 09:23:00,
2013-03-30 05:28:00,45.8,43.3,30.24,East,81,0.0,0.0,91,0.00,,,0.00,Wunderground v.1.15,2013-03-30 09:28:00,
2013-03-30 05:38:00,45.8,43.6,30.24,East,81,0.0,0.0,92,0.00,,,0.00,Wunderground v.1.15,2013-03-30 09:38:00,
2013-03-30 05:43:00,45.7,43.5,30.24,East,81,0.0,0.0,92,0.00,,,0.00,Wunderground v.1.15,2013-03-30 09:43:00,
2013-03-30 05:48:00,45.6,43.4,30.24,East,81,0.0,0.0,92,0.00,,,0.00,Wunderground v.1.15,2013-03-30 09:48:00,
2013-03-30 05:53:00,45.7,43.8,30.24,East,81,0.0,0.0,93,0.00,,,0.00,Wunderground v.1.15,2013-03-30 09:53:00,
2013-03-30 05:58:00,45.7,43.8,30.24,East,81,0.0,0.0,93,0.00,,,0.00,Wunderground v.1.15,2013-03-30 09:58:00,
2013-03-30 06:03:00,45.6,43.4,30.24,East,81,0.0,0.0,92,0.00,,,0.00,Wunderground v.1.15,2013-03-30 10:03:00,
2013-03-30 06:08:00,45.5,43.6,30.24,East,80,0.0,0.0,93,0.00,,,0.00,Wunderground v.1.15,2013-03-30 10:08:00,
2013-03-30 06:13:00,45.4,43.5,30.24,East,81,0.0,0.0,93,0.00,,,0.00,Wunderground v.1.15,2013-03-30 10:13:00,
2013-03-30 06:18:00,45.1,42.9,30.24,East,81,0.0,0.0,92,0.00,,,0.00,Wunderground v.1.15,2013-03-30 10:18:00,
2013-03-30 06:23:00,44.9,42.7,30.24,East,81,0.0,0.0,92,0.00,,,0.00,Wunderground v.1.15,2013-03-30 10:23:00,
2013-03-30 06:28:00,44.7,42.5,30.24,East,80,0.0,0.0,92,0.00,,,0.00,Wunderground v.1.15,2013-03-30 10:28:00,
2013-03-30 06:38:00,44.3,42.4,30.24,East,81,0.0,0.0,93,0.00,,,0.00,Wunderground v.1.15,2013-03-30 10:38:00,
2013-03-30 06:43:00,44.3,42.4,30.25,East,81,0.0,0.0,93,0.00,,,0.00,Wunderground v.1.15,2013-03-30 10:43:00,
2013-03-30 06:48:00,44.3,42.4,30.25,East,81,0.0,0.0,93,0.00,,,0.00,Wunderground v.1.15,2013-03-30 10:48:00,
2013-03-30 06:53:00,44.3,42.7,30.25,East,81,0.0,0.0,94,0.00,,,0.00,Wunderground v.1.15,2013-03-30 10:53:00,
2013-03-30 07:03:00,44.0,42.1,30.25,East,81,0.0,0.0,93,0.00,,,0.00,Wunderground v.1.15,2013-03-30 11:03:00,
2013-03-30 07:08:00,44.0,42.4,30.25,East,81,0.0,0.0,94,0.00,,,0.00,Wunderground v.1.15,2013-03-30 11:08:00,
2013-03-30 07:13:00,43.9,42.3,30.25,East,81,0.0,0.0,94,0.00,,,0.00,Wunderground v.1.15,2013-03-30 11:13:00,
2013-03-30 07:23:00,43.8,42.2,30.25,East,80,0.0,0.0,94,0.00,,,0.00,Wunderground v.1.15,2013-03-30 11:23:00,
2013-03-30 07:28:00,43.8,42.2,30.25,East,81,0.0,0.0,94,0.00,,,0.00,Wunderground v.1.15,2013-03-30 11:28:00,
2013-03-30 07:33:00,44.0,42.7,30.26,East,81,0.0,0.0,95,0.00,,,0.00,Wunderground v.1.15,2013-03-30 11:33:00,
2013-03-30 07:38:00,44.2,42.9,30.26,East,81,0.0,0.0,95,0.00,,,0.00,Wunderground v.1.15,2013-03-30 11:38:00,
2013-03-30 07:43:00,44.4,43.1,30.26,East,81,0.0,0.0,95,0.00,,,0.00,Wunderground v.1.15,2013-03-30 11:43:00,
2013-03-30 07:48:00,44.5,43.2,30.26,East,81,0.0,0.0,95,0.00,,,0.00,Wunderground v.1.15,2013-03-30 11:48:00,
2013-03-30 07:53:00,44.7,43.4,30.26,East,80,0.0,0.0,95,0.00,,,0.00,Wunderground v.1.15,2013-03-30 11:53:00,
2013-03-30 07:58:00,44.8,43.5,30.26,East,81,0.0,0.0,95,0.00,,,0.00,Wunderground v.1.15,2013-03-30 11:58:00,
2013-03-30 08:03:00,44.9,43.6,30.26,East,81,0.0,0.0,95,0.00,,,0.00,Wunderground v.1.15,2013-03-30 12:03:00,
2013-03-30 08:08:00,45.3,44.0,30.26,East,81,0.0,0.0,95,0.00,,,0.00,Wunderground v.1.15,2013-03-30 12:08:00,
2013-03-30 08:13:00,45.7,44.4,30.27,East,81,0.0,0.0,95,0.00,,,0.00,Wunderground v.1.15,2013-03-30 12:13:00,
2013-03-30 08:18:00,46.0,44.6,30.27,East,81,0.0,0.0,95,0.00,,,0.00,Wunderground v.1.15,2013-03-30 12:18:00,
2013-03-30 08:23:00,46.6,45.5,30.27,East,81,0.0,0.0,96,0.00,,,0.00,Wunderground v.1.15,2013-03-30 12:23:00,
2013-03-30 08:28:00,47.0,45.6,30.27,East,81,0.0,0.0,95,0.00,,,0.00,Wunderground v.1.15,2013-03-30 12:28:00,
2013-03-30 08:33:00,47.5,46.1,30.27,East,81,0.0,0.0,95,0.00,,,0.00,Wunderground v.1.15,2013-03-30 12:33:00,
2013-03-30 08:38:00,48.0,46.6,30.27,East,81,0.0,0.0,95,0.00,,,0.00,Wunderground v.1.15,2013-03-30 12:38:00,
2013-03-30 08:43:00,48.8,47.7,30.27,East,81,0.0,0.0,96,0.00,,,0.00,Wunderground v.1.15,2013-03-30 12:43:00,
2013-03-30 08:48:00,49.4,48.0,30.27,East,81,0.0,0.0,95,0.00,,,0.00,Wunderground v.1.15,2013-03-30 12:48:00,
2013-03-30 08:53:00,49.9,48.2,30.28,East,81,0.0,0.0,94,0.00,,,0.00,Wunderground v.1.15,2013-03-30 12:53:00,
2013-03-30 08:58:00,50.9,48.7,30.28,East,81,0.0,0.0,92,0.00,,,0.00,Wunderground v.1.15,2013-03-30 12:58:00,
2013-03-30 09:03:00,52.2,49.1,30.28,East,82,0.0,0.0,89,0.00,,,0.00,Wunderground v.1.15,2013-03-30 13:03:00,
2013-03-30 09:08:00,53.4,49.3,30.27,East,81,0.0,0.0,86,0.00,,,0.00,Wunderground v.1.15,2013-03-30 13:08:00,
2013-03-30 09:13:00,54.6,48.9,30.27,East,81,0.0,0.0,81,0.00,,,0.00,Wunderground v.1.15,2013-03-30 13:13:00,
2013-03-30 09:18:00,55.7,48.9,30.27,East,81,0.0,0.0,78,0.00,,,0.00,Wunderground v.1.15,2013-03-30 13:18:00,
2013-03-30 09:23:00,56.7,48.5,30.27,ENE,72,0.0,0.0,74,0.00,,,0.00,Wunderground v.1.15,2013-03-30 13:23:00,
2013-03-30 09:28:00,57.8,48.5,30.28,East,86,0.0,0.0,71,0.00,,,0.00,Wunderground v.1.15,2013-03-30 13:28:00,
2013-03-30 09:33:00,59.0,48.4,30.28,East,87,0.0,0.0,68,0.00,,,0.00,Wunderground v.1.15,2013-03-30 13:33:00,
2013-03-30 09:38:00,59.9,48.1,30.27,ENE,72,1.0,1.0,65,0.00,,,0.00,Wunderground v.1.15,2013-03-30 13:38:00,
2013-03-30 09:43:00,60.6,47.9,30.27,ENE,71,1.0,1.0,63,0.00,,,0.00,Wunderground v.1.15,2013-03-30 13:43:00,
2013-03-30 09:48:00,61.4,48.3,30.27,ENE,60,1.0,1.0,62,0.00,,,0.00,Wunderground v.1.15,2013-03-30 13:48:00,
2013-03-30 09:53:00,62.4,49.2,30.27,ENE,77,0.0,1.0,62,0.00,,,0.00,Wunderground v.1.15,2013-03-30 13:53:00,
2013-03-30 09:58:00,63.5,48.9,30.27,ENE,61,0.0,2.0,59,0.00,,,0.00,Wunderground v.1.15,2013-03-30 13:58:00,
2013-03-30 10:03:00,64.0,48.5,30.27,ENE,78,1.0,2.0,57,0.00,,,0.00,Wunderground v.1.15,2013-03-30 14:03:00,
2013-03-30 10:08:00,64.4,48.4,30.27,East,91,1.0,1.0,56,0.00,,,0.00,Wunderground v.1.15,2013-03-30 14:08:00,
2013-03-30 10:13:00,65.1,48.5,30.27,East,90,1.0,1.0,55,0.00,,,0.00,Wunderground v.1.15,2013-03-30 14:13:00,
2013-03-30 10:18:00,66.0,48.4,30.27,ENE,67,1.0,1.0,53,0.00,,,0.00,Wunderground v.1.15,2013-03-30 14:18:00,
2013-03-30 10:23:00,67.0,48.3,30.26,ENE,68,1.0,1.0,51,0.00,,,0.00,Wunderground v.1.15,2013-03-30 14:23:00,
2013-03-30 10:28:00,67.5,48.2,30.26,East,92,1.0,1.0,50,0.00,,,0.00,Wunderground v.1.15,2013-03-30 14:28:00,
2013-03-30 10:33:00,67.6,47.8,30.26,East,95,1.0,1.0,49,0.00,,,0.00,Wunderground v.1.15,2013-03-30 14:33:00,
2013-03-30 10:38:00,67.7,48.4,30.26,NE,54,1.0,1.0,50,0.00,,,0.00,Wunderground v.1.15,2013-03-30 14:38:00,
2013-03-30 10:43:00,68.6,49.2,30.26,ENE,77,1.0,1.0,50,0.00,,,0.00,Wunderground v.1.15,2013-03-30 14:43:00,
2013-03-30 10:48:00,69.2,48.7,30.26,ESE,113,1.0,1.0,48,0.00,,,0.00,Wunderground v.1.15,2013-03-30 14:48:00,
2013-03-30 10:53:00,69.3,47.6,30.26,NE,50,1.0,2.0,46,0.00,,,0.00,Wunderground v.1.15,2013-03-30 14:53:00,
2013-03-30 10:58:00,69.2,47.5,30.26,ENE,75,1.0,1.0,46,0.00,,,0.00,Wunderground v.1.15,2013-03-30 14:58:00,
2013-03-30 11:03:00,69.3,47.6,30.26,ESE,103,1.0,3.0,46,0.00,,,0.00,Wunderground v.1.15,2013-03-30 15:03:00,
2013-03-30 11:08:00,69.5,47.8,30.26,East,94,1.0,1.0,46,0.00,,,0.00,Wunderground v.1.15,2013-03-30 15:08:00,
2013-03-30 11:13:00,69.6,47.3,30.26,NE,51,1.0,1.0,45,0.00,,,0.00,Wunderground v.1.15,2013-03-30 15:13:00,
2013-03-30 11:18:00,69.8,46.9,30.26,East,85,2.0,2.0,44,0.00,,,0.00,Wunderground v.1.15,2013-03-30 15:18:00,
2013-03-30 11:23:00,70.1,46.6,30.26,East,97,2.0,2.0,43,0.00,,,0.00,Wunderground v.1.15,2013-03-30 15:23:00,
2013-03-30 11:33:00,70.0,46.5,30.25,NNE,24,3.0,4.0,43,0.00,,,0.00,Wunderground v.1.15,2013-03-30 15:33:00,
2013-03-30 11:38:00,70.4,45.6,30.25,NE,56,3.0,3.0,41,0.00,,,0.00,Wunderground v.1.15,2013-03-30 15:38:00,
2013-03-30 11:43:00,70.7,46.5,30.25,ENE,63,2.0,3.0,42,0.00,,,0.00,Wunderground v.1.15,2013-03-30 15:43:00,
2013-03-30 11:48:00,70.8,45.9,30.25,NE,56,3.0,6.0,41,0.00,,,0.00,Wunderground v.1.15,2013-03-30 15:48:00,
2013-03-30 11:53:00,70.9,46.0,30.25,NNW,346,4.0,6.0,41,0.00,,,0.00,Wunderground v.1.15,2013-03-30 15:53:00,
2013-03-30 11:58:00,71.1,45.5,30.25,East,80,3.0,3.0,40,0.00,,,0.00,Wunderground v.1.15,2013-03-30 15:58:00,
2013-03-30 12:03:00,71.8,47.5,30.25,ESE,117,2.0,3.0,42,0.00,,,0.00,Wunderground v.1.15,2013-03-30 16:03:00,
2013-03-30 12:08:00,71.8,46.8,30.25,NNE,30,2.0,2.0,41,0.00,,,0.00,Wunderground v.1.15,2013-03-30 16:08:00,
2013-03-30 12:13:00,72.8,48.4,30.25,SE,134,2.0,4.0,42,0.00,,,0.00,Wunderground v.1.15,2013-03-30 16:13:00,
2013-03-30 12:18:00,73.5,47.0,30.25,NNE,16,2.0,3.0,39,0.00,,,0.00,Wunderground v.1.15,2013-03-30 16:18:00,
2013-03-30 12:23:00,73.9,47.4,30.24,NE,46,2.0,3.0,39,0.00,,,0.00,Wunderground v.1.15,2013-03-30 16:23:00,
2013-03-30 12:28:00,74.2,47.0,30.24,WNW,285,2.0,5.0,38,0.00,,,0.00,Wunderground v.1.15,2013-03-30 16:28:00,
2013-03-30 12:33:00,74.1,45.4,30.24,East,86,3.0,5.0,36,0.00,,,0.00,Wunderground v.1.15,2013-03-30 16:33:00,
2013-03-30 12:38:00,73.9,46.0,30.24,East,94,3.0,3.0,37,0.00,,,0.00,Wunderground v.1.15,2013-03-30 16:38:00,
2013-03-30 12:48:00,74.4,44.2,30.23,NNE,19,3.0,3.0,34,0.00,,,0.00,Wunderground v.1.15,2013-03-30 16:48:00,
2013-03-30 12:53:00,75.0,43.1,30.23,ESE,113,3.0,3.0,32,0.00,,,0.00,Wunderground v.1.15,2013-03-30 16:53:00,
2013-03-30 12:58:00,75.4,44.3,30.23,NNE,22,2.0,5.0,33,0.00,,,0.00,Wunderground v.1.15,2013-03-30 16:58:00,
2013-03-30 13:03:00,75.8,44.6,30.22,NE,46,2.0,5.0,33,0.00,,,0.00,Wunderground v.1.15,2013-03-30 17:03:00,
2013-03-30 13:08:00,76.0,44.0,30.22,East,83,2.0,2.0,32,0.00,,,0.00,Wunderground v.1.15,2013-03-30 17:08:00,
2013-03-30 13:13:00,76.3,43.4,30.22,NNE,28,2.0,2.0,31,0.00,,,0.00,Wunderground v.1.15,2013-03-30 17:13:00,
2013-03-30 13:18:00,76.4,43.5,30.22,East,86,2.0,2.0,31,0.00,,,0.00,Wunderground v.1.15,2013-03-30 17:18:00,
2013-03-30 13:23:00,75.8,41.3,30.21,East,87,2.0,2.0,29,0.00,,,0.00,Wunderground v.1.15,2013-03-30 17:23:00,
2013-03-30 13:28:00,75.5,42.7,30.21,North,6,3.0,3.0,31,0.00,,,0.00,Wunderground v.1.15,2013-03-30 17:28:00,
2013-03-30 13:33:00,75.9,42.2,30.21,ESE,120,3.0,4.0,30,0.00,,,0.00,Wunderground v.1.15,2013-03-30 17:33:00,
2013-03-30 13:38:00,75.7,42.1,30.21,East,94,3.0,3.0,30,0.00,,,0.00,Wunderground v.1.15,2013-03-30 17:38:00,
2013-03-30 13:43:00,75.4,41.8,30.20,NNW,330,3.0,3.0,30,0.00,,,0.00,Wunderground v.1.15,2013-03-30 17:43:00,
2013-03-30 13:48:00,75.6,42.0,30.20,ENE,73,3.0,3.0,30,0.00,,,0.00,Wunderground v.1.15,2013-03-30 17:48:00,
2013-03-30 13:58:00,76.3,43.4,30.20,ESE,117,2.0,6.0,31,0.00,,,0.00,Wunderground v.1.15,2013-03-30 17:58:00,
2013-03-30 14:03:00,76.3,43.4,30.20,ESE,114,2.0,7.0,31,0.00,,,0.00,Wunderground v.1.15,2013-03-30 18:03:00,
2013-03-30 14:08:00,76.1,44.1,30.20,ESE,109,3.0,3.0,32,0.00,,,0.00,Wunderground v.1.15,2013-03-30 18:08:00,
2013-03-30 14:13:00,76.3,44.3,30.20,ENE,61,3.0,3.0,32,0.00,,,0.00,Wunderground v.1.15,2013-03-30 18:13:00,
2013-03-30 14:18:00,76.5,44.4,30.20,NE,55,2.0,2.0,32,0.00,,,0.00,Wunderground v.1.15,2013-03-30 18:18:00,
2013-03-30 14:23:00,76.9,44.8,30.19,ENE,57,2.0,3.0,32,0.00,,,0.00,Wunderground v.1.15,2013-03-30 18:23:00,
2013-03-30 14:28:00,77.0,44.0,30.19,East,81,2.0,2.0,31,0.00,,,0.00,Wunderground v.1.15,2013-03-30 18:28:00,
2013-03-30 14:38:00,77.1,45.0,30.18,NE,34,3.0,3.0,32,0.00,,,0.00,Wunderground v.1.15,2013-03-30 18:38:00,
2013-03-30 14:43:00,77.6,45.4,30.18,NE,37,3.0,3.0,32,0.00,,,0.00,Wunderground v.1.15,2013-03-30 18:43:00,
2013-03-30 14:48:00,78.0,45.7,30.18,North,6,2.0,4.0,32,0.00,,,0.00,Wunderground v.1.15,2013-03-30 18:48:00,
2013-03-30 14:53:00,77.2,45.0,30.17,NE,46,2.0,4.0,32,0.00,,,0.00,Wunderground v.1.15,2013-03-30 18:53:00,
2013-03-30 14:58:00,77.4,46.8,30.17,NNW,340,3.0,3.0,34,0.00,,,0.00,Wunderground v.1.15,2013-03-30 18:58:00,
2013-03-30 15:03:00,78.0,47.4,30.17,East,94,2.0,3.0,34,0.00,,,0.00,Wunderground v.1.15,2013-03-30 19:03:00,
2013-03-30 15:08:00,78.0,45.7,30.17,ENE,68,2.0,2.0,32,0.00,,,0.00,Wunderground v.1.15,2013-03-30 19:08:00,
2013-03-30 15:13:00,77.8,46.4,30.16,East,88,2.0,2.0,33,0.00,,,0.00,Wunderground v.1.15,2013-03-30 19:13:00,
2013-03-30 15:18:00,78.3,45.2,30.16,NNE,27,2.0,2.0,31,0.00,,,0.00,Wunderground v.1.15,2013-03-30 19:18:00,
2013-03-30 15:23:00,78.4,46.1,30.16,East,97,2.0,3.0,32,0.00,,,0.00,Wunderground v.1.15,2013-03-30 19:23:00,
2013-03-30 15:28:00,78.3,45.2,30.16,NE,47,3.0,3.0,31,0.00,,,0.00,Wunderground v.1.15,2013-03-30 19:28:00,
2013-03-30 15:33:00,78.3,46.8,30.16,ENE,61,3.0,3.0,33,0.00,,,0.00,Wunderground v.1.15,2013-03-30 19:33:00,
2013-03-30 15:38:00,78.6,46.3,30.15,East,81,2.0,2.0,32,0.00,,,0.00,Wunderground v.1.15,2013-03-30 19:38:00,
2013-03-30 15:43:00,78.5,46.2,30.15,NE,54,2.0,2.0,32,0.00,,,0.00,Wunderground v.1.15,2013-03-30 19:43:00,
2013-03-30 15:48:00,78.4,46.9,30.15,ENE,76,3.0,3.0,33,0.00,,,0.00,Wunderground v.1.15,2013-03-30 19:48:00,
2013-03-30 15:53:00,79.0,45.8,30.15,North,4,3.0,3.0,31,0.00,,,0.00,Wunderground v.1.15,2013-03-30 19:53:00,
2013-03-30 15:58:00,78.9,43.9,30.15,ESE,113,2.0,2.0,29,0.00,,,0.00,Wunderground v.1.15,2013-03-30 19:58:00,
2013-03-30 16:03:00,79.2,45.9,30.15,SSE,147,2.0,3.0,31,0.00,,,0.00,Wunderground v.1.15,2013-03-30 20:03:00,
2013-03-30 16:13:00,78.3,45.2,30.14,NE,55,3.0,3.0,31,0.00,,,0.00,Wunderground v.1.15,2013-03-30 20:13:00,
2013-03-30 16:18:00,78.1,44.1,30.14,East,90,2.0,2.0,30,0.00,,,0.00,Wunderground v.1.15,2013-03-30 20:18:00,
2013-03-30 16:23:00,78.7,45.5,30.14,ENE,78,2.0,2.0,31,0.00,,,0.00,Wunderground v.1.15,2013-03-30 20:23:00,
2013-03-30 16:28:00,79.1,45.0,30.14,NNE,18,2.0,2.0,30,0.00,,,0.00,Wunderground v.1.15,2013-03-30 20:28:00,
2013-03-30 16:33:00,79.5,44.5,30.14,East,80,2.0,2.0,29,0.00,,,0.00,Wunderground v.1.15,2013-03-30 20:33:00,
2013-03-30 16:38:00,79.7,45.5,30.13,ENE,78,2.0,2.0,30,0.00,,,0.00,Wunderground v.1.15,2013-03-30 20:38:00,
2013-03-30 16:43:00,80.0,45.8,30.14,WNW,290,2.0,6.0,30,0.00,,,0.00,Wunderground v.1.15,2013-03-30 20:43:00,
2013-03-30 16:48:00,79.6,44.5,30.13,East,91,2.0,2.0,29,0.00,,,0.00,Wunderground v.1.15,2013-03-30 20:48:00,
2013-03-30 16:53:00,79.0,44.0,30.13,ENE,77,2.0,3.0,29,0.00,,,0.00,Wunderground v.1.15,2013-03-30 20:53:00,
2013-03-30 16:58:00,79.0,44.0,30.13,ESE,113,2.0,2.0,29,0.00,,,0.00,Wunderground v.1.15,2013-03-30 20:58:00,
2013-03-30 17:03:00,79.3,45.2,30.13,ESE,104,2.0,2.0,30,0.00,,,0.00,Wunderground v.1.15,2013-03-30 21:03:00,
2013-03-30 17:08:00,79.4,45.3,30.12,East,79,2.0,2.0,30,0.00,,,0.00,Wunderground v.1.15,2013-03-30 21:08:00,
2013-03-30 17:13:00,79.8,46.5,30.12,NE,44,2.0,2.0,31,0.00,,,0.00,Wunderground v.1.15,2013-03-30 21:13:00,
2013-03-30 17:18:00,79.8,45.6,30.12,ENE,73,1.0,5.0,30,0.00,,,0.00,Wunderground v.1.15,2013-03-30 21:18:00,
2013-03-30 17:23:00,78.6,43.7,30.12,SE,132,3.0,5.0,29,0.00,,,0.00,Wunderground v.1.15,2013-03-30 21:23:00,
2013-03-30 17:28:00,78.5,45.3,30.12,East,86,3.0,3.0,31,0.00,,,0.00,Wunderground v.1.15,2013-03-30 21:28:00,
2013-03-30 17:33:00,78.8,46.4,30.13,East,82,2.0,3.0,32,0.00,,,0.00,Wunderground v.1.15,2013-03-30 21:33:00,
2013-03-30 17:38:00,78.9,45.7,30.12,ESE,107,2.0,3.0,31,0.00,,,0.00,Wunderground v.1.15,2013-03-30 21:38:00,
2013-03-30 17:43:00,79.2,46.8,30.12,ENE,64,2.0,3.0,32,0.00,,,0.00,Wunderground v.1.15,2013-03-30 21:43:00,
2013-03-30 17:48:00,79.3,46.0,30.12,East,81,1.0,1.0,31,0.00,,,0.00,Wunderground v.1.15,2013-03-30 21:48:00,
2013-03-30 17:58:00,78.9,46.5,30.12,East,94,2.0,2.0,32,0.00,,,0.00,Wunderground v.1.15,2013-03-30 21:58:00,
2013-03-30 18:03:00,79.0,46.6,30.12,East,87,2.0,2.0,32,0.00,,,0.00,Wunderground v.1.15,2013-03-30 22:03:00,
2013-03-30 18:08:00,79.2,46.8,30.12,ESE,122,1.0,1.0,32,0.00,,,0.00,Wunderground v.1.15,2013-03-30 22:08:00,
2013-03-30 18:13:00,79.1,47.5,30.12,East,81,1.0,1.0,33,0.00,,,0.00,Wunderground v.1.15,2013-03-30 22:13:00,
2013-03-30 18:18:00,79.3,46.9,30.12,East,84,1.0,1.0,32,0.00,,,0.00,Wunderground v.1.15,2013-03-30 22:18:00,
2013-03-30 18:23:00,78.7,46.4,30.12,ENE,78,1.0,1.0,32,0.00,,,0.00,Wunderground v.1.15,2013-03-30 22:23:00,
2013-03-30 18:28:00,78.5,46.2,30.12,ESE,108,1.0,1.0,32,0.00,,,0.00,Wunderground v.1.15,2013-03-30 22:28:00,
2013-03-30 18:33:00,78.4,46.1,30.12,ENE,65,1.0,1.0,32,0.00,,,0.00,Wunderground v.1.15,2013-03-30 22:33:00,
2013-03-30 18:38:00,78.4,46.9,30.12,ENE,77,1.0,1.0,33,0.00,,,0.00,Wunderground v.1.15,2013-03-30 22:38:00,
2013-03-30 18:43:00,78.3,46.8,30.12,East,94,1.0,2.0,33,0.00,,,0.00,Wunderground v.1.15,2013-03-30 22:43:00,
2013-03-30 18:48:00,77.8,46.4,30.12,East,84,1.0,1.0,33,0.00,,,0.00,Wunderground v.1.15,2013-03-30 22:48:00,
2013-03-30 18:53:00,77.7,46.3,30.12,East,94,1.0,1.0,33,0.00,,,0.00,Wunderground v.1.15,2013-03-30 22:53:00,
2013-03-30 18:58:00,77.3,45.9,30.12,East,101,1.0,1.0,33,0.00,,,0.00,Wunderground v.1.15,2013-03-30 22:58:00,
2013-03-30 19:03:00,77.1,45.8,30.12,ENE,78,1.0,1.0,33,0.00,,,0.00,Wunderground v.1.15,2013-03-30 23:03:00,
2013-03-30 19:08:00,76.6,46.1,30.12,ESE,110,1.0,1.0,34,0.00,,,0.00,Wunderground v.1.15,2013-03-30 23:08:00,
2013-03-30 19:13:00,75.9,45.5,30.12,East,86,1.0,1.0,34,0.00,,,0.00,Wunderground v.1.15,2013-03-30 23:13:00,
2013-03-30 19:23:00,74.6,45.9,30.13,East,96,1.0,1.0,36,0.00,,,0.00,Wunderground v.1.15,2013-03-30 23:23:00,
2013-03-30 19:28:00,74.1,46.2,30.13,East,96,1.0,1.0,37,0.00,,,0.00,Wunderground v.1.15,2013-03-30 23:28:00,
2013-03-30 19:33:00,73.6,46.4,30.13,East,96,0.0,1.0,38,0.00,,,0.00,Wunderground v.1.15,2013-03-30 23:33:00,
2013-03-30 19:38:00,73.1,46.0,30.13,East,96,0.0,0.0,38,0.00,,,0.00,Wunderground v.1.15,2013-03-30 23:38:00,
2013-03-30 19:43:00,72.5,46.1,30.13,East,96,0.0,0.0,39,0.00,,,0.00,Wunderground v.1.15,2013-03-30 23:43:00,
2013-03-30 19:48:00,71.9,46.3,30.13,East,96,0.0,0.0,40,0.00,,,0.00,Wunderground v.1.15,2013-03-30 23:48:00,
2013-03-30 19:53:00,71.3,46.4,30.13,East,96,0.0,0.0,41,0.00,,,0.00,Wunderground v.1.15,2013-03-30 23:53:00,
2013-03-30 19:58:00,70.9,46.7,30.13,East,96,0.0,0.0,42,0.00,,,0.00,Wunderground v.1.15,2013-03-30 23:58:00,
2013-03-30 20:03:00,70.4,46.8,30.14,East,96,0.0,0.0,43,0.00,,,0.00,Wunderground v.1.15,2013-03-31 00:03:00,
2013-03-30 20:08:00,70.0,47.1,30.14,East,96,0.0,0.0,44,0.00,,,0.00,Wunderground v.1.15,2013-03-31 00:08:00,
2013-03-30 20:13:00,69.6,46.7,30.14,East,96,0.0,0.0,44,0.00,,,0.00,Wunderground v.1.15,2013-03-31 00:13:00,
2013-03-30 20:18:00,69.2,48.7,30.14,East,96,0.0,0.0,48,0.00,,,0.00,Wunderground v.1.15,2013-03-31 00:18:00,
2013-03-30 20:23:00,68.5,49.1,30.14,East,96,0.0,0.0,50,0.00,,,0.00,Wunderground v.1.15,2013-03-31 00:23:00,
2013-03-30 20:28:00,67.9,48.6,30.14,East,96,0.0,0.0,50,0.00,,,0.00,Wunderground v.1.15,2013-03-31 00:28:00,
2013-03-30 20:33:00,67.4,48.6,30.14,East,96,0.0,0.0,51,0.00,,,0.00,Wunderground v.1.15,2013-03-31 00:33:00,
2013-03-30 20:38:00,66.9,48.2,30.14,East,96,0.0,0.0,51,0.00,,,0.00,Wunderground v.1.15,2013-03-31 00:38:00,
2013-03-30 20:43:00,66.4,48.2,30.14,East,96,0.0,0.0,52,0.00,,,0.00,Wunderground v.1.15,2013-03-31 00:43:00,
2013-03-30 20:48:00,65.9,48.8,30.14,East,96,0.0,0.0,54,0.00,,,0.00,Wunderground v.1.15,2013-03-31 00:48:00,
2013-03-30 20:53:00,65.4,48.8,30.14,East,96,0.0,0.0,55,0.00,,,0.00,Wunderground v.1.15,2013-03-31 00:53:00,
2013-03-30 20:58:00,65.0,48.4,30.14,East,96,0.0,0.0,55,0.00,,,0.00,Wunderground v.1.15,2013-03-31 00:58:00,
2013-03-30 21:08:00,64.3,49.7,30.15,East,96,0.0,0.0,59,0.00,,,0.00,Wunderground v.1.15,2013-03-31 01:08:00,
2013-03-30 21:13:00,64.1,49.0,30.14,East,96,0.0,0.0,58,0.00,,,0.00,Wunderground v.1.15,2013-03-31 01:13:00,
2013-03-30 21:18:00,64.0,48.9,30.15,East,96,0.0,0.0,58,0.00,,,0.00,Wunderground v.1.15,2013-03-31 01:18:00,
2013-03-30 21:23:00,64.2,50.0,30.15,East,96,0.0,0.0,60,0.00,,,0.00,Wunderground v.1.15,2013-03-31 01:23:00,
2013-03-30 21:28:00,64.3,49.7,30.15,East,96,0.0,0.0,59,0.00,,,0.00,Wunderground v.1.15,2013-03-31 01:28:00,
2013-03-30 21:33:00,64.4,49.3,30.15,East,96,0.0,0.0,58,0.00,,,0.00,Wunderground v.1.15,2013-03-31 01:33:00,
2013-03-30 21:38:00,64.3,49.2,30.15,East,96,0.0,0.0,58,0.00,,,0.00,Wunderground v.1.15,2013-03-31 01:38:00,
2013-03-30 21:43:00,64.8,48.7,30.15,East,86,0.0,0.0,56,0.00,,,0.00,Wunderground v.1.15,2013-03-31 01:43:00,
2013-03-30 21:48:00,65.1,49.0,30.15,East,86,0.0,0.0,56,0.00,,,0.00,Wunderground v.1.15,2013-03-31 01:48:00,
2013-03-30 21:53:00,65.2,48.6,30.15,East,86,0.0,0.0,55,0.00,,,0.00,Wunderground v.1.15,2013-03-31 01:53:00,
2013-03-30 21:58:00,65.3,48.2,30.15,East,82,0.0,1.0,54,0.00,,,0.00,Wunderground v.1.15,2013-03-31 01:58:00,
2013-03-30 22:03:00,65.3,48.7,30.15,East,88,0.0,1.0,55,0.00,,,0.00,Wunderground v.1.15,2013-03-31 02:03:00,
2013-03-30 22:08:00,65.3,48.2,30.16,East,88,0.0,2.0,54,0.00,,,0.00,Wunderground v.1.15,2013-03-31 02:08:00,
2013-03-30 22:13:00,65.3,48.2,30.16,ENE,78,1.0,2.0,54,0.00,,,0.00,Wunderground v.1.15,2013-03-31 02:13:00,
2013-03-30 22:18:00,65.2,47.6,30.16,ESE,103,1.0,1.0,53,0.00,,,0.00,Wunderground v.1.15,2013-03-31 02:18:00,
2013-03-30 22:23:00,65.2,47.6,30.16,ESE,102,0.0,1.0,53,0.00,,,0.00,Wunderground v.1.15,2013-03-31 02:23:00,
2013-03-30 22:28:00,65.2,47.6,30.16,East,85,1.0,1.0,53,0.00,,,0.00,Wunderground v.1.15,2013-03-31 02:28:00,
2013-03-30 22:33:00,65.0,47.4,30.16,ESE,115,1.0,1.0,53,0.00,,,0.00,Wunderground v.1.15,2013-03-31 02:33:00,
2013-03-30 22:38:00,64.9,47.4,30.16,East,86,0.0,1.0,53,0.00,,,0.00,Wunderground v.1.15,2013-03-31 02:38:00,
2013-03-30 22:43:00,64.8,47.3,30.16,ENE,75,0.0,1.0,53,0.00,,,0.00,Wunderground v.1.15,2013-03-31 02:43:00,
2013-03-30 22:48:00,64.5,47.0,30.16,ENE,75,0.0,0.0,53,0.00,,,0.00,Wunderground v.1.15,2013-03-31 02:48:00,
2013-03-30 22:53:00,64.3,47.3,30.16,East,94,0.0,0.0,54,0.00,,,0.00,Wunderground v.1.15,2013-03-31 02:53:00,
2013-03-30 22:58:00,63.9,46.9,30.16,East,94,0.0,0.0,54,0.00,,,0.00,Wunderground v.1.15,2013-03-31 02:58:00,
2013-03-30 23:08:00,63.4,46.9,30.16,ENE,65,0.0,0.0,55,0.00,,,0.00,Wunderground v.1.15,2013-03-31 03:08:00,
2013-03-30 23:13:00,63.1,47.1,30.16,ENE,78,0.0,0.0,56,0.00,,,0.00,Wunderground v.1.15,2013-03-31 03:13:00,
2013-03-30 23:18:00,62.9,47.0,30.16,NE,52,0.0,1.0,56,0.00,,,0.00,Wunderground v.1.15,2013-03-31 03:18:00,
2013-03-30 23:23:00,62.7,46.8,30.16,NE,53,0.0,1.0,56,0.00,,,0.00,Wunderground v.1.15,2013-03-31 03:23:00,
2013-03-30 23:28:00,62.2,46.8,30.16,NE,53,0.0,0.0,57,0.00,,,0.00,Wunderground v.1.15,2013-03-31 03:28:00,
2013-03-30 23:33:00,61.9,46.5,30.16,NE,53,0.0,0.0,57,0.00,,,0.00,Wunderground v.1.15,2013-03-31 03:33:00,
2013-03-30 23:38:00,61.5,46.6,30.16,NE,52,0.0,0.0,58,0.00,,,0.00,Wunderground v.1.15,2013-03-31 03:38:00,
2013-03-30 23:43:00,61.1,46.7,30.16,NE,52,0.0,0.0,59,0.00,,,0.00,Wunderground v.1.15,2013-03-31 03:43:00,
2013-03-30 23:48:00,60.9,46.5,30.16,NE,53,0.0,0.0,59,0.00,,,0.00,Wunderground v.1.15,2013-03-31 03:48:00,
2013-03-30 23:53:00,60.6,47.5,30.15,NE,53,0.0,1.0,62,0.00,,,0.00,Wunderground v.1.15,2013-03-31 03:53:00,
2013-03-30 23:58:00,60.3,47.6,30.15,NE,53,0.0,0.0,63,0.00,,,0.00,Wunderground v.1.15,2013-03-31 03:58:00,